Time;durP1;ratioP1;P1;durP2;ratioP2;P2;SDS_P1;SDS_P2;PMS_P1;PMS_P2;Temp;Humidity;BMP_temperature;BMP_pressure;BME280_temperature;BME280_humidity;BME280_pressure;Samples;Min_cycle;Max_cycle;Signal;HPM_P1;HPM_P2
2022/12/13 00:01:16;;;;;;;;;6.00;6.00;;;;;20.59;38.08;100572.88;5014863;28;45307;-69
2022/12/13 00:03:41;;;;;;;;;7.00;7.00;;;;;20.57;37.73;100564.31;5033256;28;45365;-69
2022/12/13 00:06:08;;;;;;;;;8.50;7.25;;;;;20.56;37.84;100565.31;5032774;28;45323;-69
2022/12/13 00:08:34;;;;;;;;;6.25;5.50;;;;;20.53;38.15;100561.22;5032905;28;47333;-69
2022/12/13 00:11:00;;;;;;;;;8.00;5.25;;;;;20.56;37.83;100570.59;5032506;28;45861;-69
2022/12/13 00:13:27;;;;;;;;;6.25;6.25;;;;;20.55;38.01;100564.50;5033036;28;45373;-69
2022/12/13 00:16:01;;;;;;;;;8.00;7.25;;;;;20.52;38.01;100559.56;5032907;28;45435;-69
2022/12/13 00:18:27;;;;;;;;;10.00;9.00;;;;;20.55;37.67;100569.78;5035250;28;46391;-69
2022/12/13 00:20:53;;;;;;;;;6.50;6.50;;;;;20.44;37.61;100547.25;5052894;28;45460;-68
2022/12/13 00:23:18;;;;;;;;;8.50;6.25;;;;;20.48;37.80;100553.00;5052955;28;45637;-69
2022/12/13 00:25:45;;;;;;;;;7.50;6.25;;;;;20.54;37.40;100559.38;5052445;28;45519;-68
2022/12/13 00:28:11;;;;;;;;;6.00;6.00;;;;;20.53;37.48;100555.09;5034703;28;48393;-68
2022/12/13 00:30:37;;;;;;;;;7.75;6.00;;;;;20.45;37.36;100542.78;5052567;28;45295;-67
2022/12/13 00:33:03;;;;;;;;;8.75;5.75;;;;;20.53;37.33;100550.66;5052810;28;45310;-69
2022/12/13 00:35:28;;;;;;;;;7.75;6.50;;;;;20.53;37.41;100552.47;5052742;28;45387;-69
2022/12/13 00:37:53;;;;;;;;;5.75;4.50;;;;;20.47;37.41;100541.59;5052837;28;46216;-70
2022/12/13 00:40:20;;;;;;;;;5.25;5.00;;;;;20.52;37.46;100541.06;5034247;28;45320;-69
2022/12/13 00:42:45;;;;;;;;;5.25;5.25;;;;;20.52;37.48;100549.00;5052734;28;45420;-69
2022/12/13 00:45:10;;;;;;;;;9.00;7.75;;;;;20.52;37.64;100535.78;5052307;28;45452;-69
2022/12/13 00:47:36;;;;;;;;;4.75;4.75;;;;;20.53;37.75;100542.72;5052592;28;45451;-69
2022/12/13 00:50:03;;;;;;;;;6.25;5.50;;;;;20.53;37.59;100539.25;5052523;28;45409;-68
2022/12/13 00:52:29;;;;;;;;;10.00;7.50;;;;;20.53;37.73;100549.81;5052544;28;45355;-70
2022/12/13 00:54:54;;;;;;;;;7.00;6.00;;;;;20.50;37.72;100538.63;5039426;28;45317;-69
2022/12/13 00:57:20;;;;;;;;;6.25;6.25;;;;;20.42;37.60;100533.38;5032252;28;47350;-69
2022/12/13 00:59:45;;;;;;;;;8.75;6.25;;;;;20.48;37.75;100542.44;5032271;27;45384;-69
2022/12/13 01:02:11;;;;;;;;;5.25;5.25;;;;;20.51;37.52;100552.63;5031975;27;45333;-69
2022/12/13 01:04:36;;;;;;;;;8.00;7.00;;;;;20.41;37.91;100537.00;5032022;28;45364;-69
2022/12/13 01:07:02;;;;;;;;;7.75;6.00;;;;;20.50;37.83;100551.00;5031977;28;46071;-69
2022/12/13 01:09:29;;;;;;;;;5.00;5.00;;;;;20.49;37.79;100552.81;5034058;28;45373;-69
2022/12/13 01:12:05;;;;;;;;;5.75;5.00;;;;;20.49;37.90;100557.28;5035412;28;45432;-69
2022/12/13 01:14:34;;;;;;;;;7.00;7.00;;;;;20.48;37.78;100548.50;5035199;28;45234;-69
2022/12/13 01:17:00;;;;;;;;;6.25;5.75;;;;;20.47;37.67;100557.47;5035061;28;45320;-69
2022/12/13 01:19:26;;;;;;;;;7.00;5.75;;;;;20.48;37.71;100550.38;5045742;28;45480;-70
2022/12/13 01:22:00;;;;;;;;;6.75;6.75;;;;;20.47;37.75;100549.53;5055414;28;45416;-69
2022/12/13 01:24:27;;;;;;;;;7.00;6.75;;;;;20.46;37.65;100550.53;5054701;28;45397;-69
2022/12/13 01:26:53;;;;;;;;;6.75;5.25;;;;;20.46;37.73;100547.03;5054904;28;45364;-69
2022/12/13 01:29:20;;;;;;;;;7.50;4.25;;;;;20.46;37.74;100552.34;5043932;28;45262;-69
2022/12/13 01:31:46;;;;;;;;;7.75;5.00;;;;;20.45;37.82;100551.53;5035053;28;45426;-68
2022/12/13 01:34:13;;;;;;;;;7.25;6.25;;;;;20.45;37.81;100553.34;5034811;27;45365;-69
2022/12/13 01:36:40;;;;;;;;;7.25;5.75;;;;;20.39;37.72;100533.72;5034889;28;46133;-69
2022/12/13 01:39:08;;;;;;;;;6.00;6.00;;;;;20.44;37.75;100531.38;5034287;28;45400;-69
2022/12/13 01:41:34;;;;;;;;;8.75;6.00;;;;;20.44;37.71;100531.38;5034921;28;45354;-69
2022/12/13 01:44:02;;;;;;;;;6.75;6.75;;;;;20.44;37.34;100536.66;5034984;28;45345;-69
2022/12/13 01:46:30;;;;;;;;;6.75;6.50;;;;;20.38;37.38;100530.25;5034801;27;46042;-69
2022/12/13 01:48:58;;;;;;;;;7.00;7.00;;;;;20.43;37.55;100539.50;5034833;27;45353;-68
2022/12/13 01:51:30;;;;;;;;;5.75;4.75;;;;;20.35;37.38;100532.44;5035666;27;45380;-69
2022/12/13 01:53:59;;;;;;;;;7.25;6.00;;;;;20.43;37.04;100540.28;5034668;27;45440;-69
2022/12/13 01:56:32;;;;;;;;;7.00;5.00;;;;;20.44;37.18;100543.75;5034567;28;46490;-69
2022/12/13 01:58:59;;;;;;;;;6.25;5.50;;;;;20.44;37.14;100547.25;5034550;28;45427;-69
2022/12/13 02:01:26;;;;;;;;;8.50;6.00;;;;;20.44;36.99;100549.06;5034440;28;45313;-69
2022/12/13 02:03:51;;;;;;;;;5.25;5.25;;;;;20.43;37.02;100550.06;5034598;28;45331;-70
2022/12/13 02:06:21;;;;;;;;;6.00;5.00;;;;;20.42;36.79;100543.97;5015896;28;46026;-69
2022/12/13 02:08:46;;;;;;;;;9.50;7.00;;;;;20.42;37.06;100545.78;5034362;28;45388;-69
2022/12/13 02:11:13;;;;;;;;;8.00;6.00;;;;;20.44;36.88;100555.16;5034622;28;45566;-69
2022/12/13 02:13:38;;;;;;;;;7.25;5.75;;;;;20.44;36.94;100551.69;5034378;28;45362;-69
2022/12/13 02:16:23;;;;;;;;;7.25;5.00;;;;;20.44;36.80;100563.09;5032874;28;47095;-69
2022/12/13 02:18:59;;;;;;;;;7.00;6.75;;;;;20.44;36.83;100546.41;5040014;28;45215;-69
2022/12/13 02:21:45;;;;;;;;;5.75;5.75;;;;;20.39;36.69;100545.13;5053341;28;45236;-69
2022/12/13 02:24:36;;;;;;;;;8.25;7.25;;;;;20.45;36.86;100548.06;5054300;28;45352;-68
2022/12/13 02:27:39;;;;;;;;;6.75;6.50;;;;;20.44;36.81;100544.59;5039643;28;46175;-69
2022/12/13 02:30:07;;;;;;;;;5.00;5.00;;;;;20.44;36.92;100539.31;5054262;28;45372;-68
2022/12/13 02:33:02;;;;;;;;;6.75;6.00;;;;;20.44;36.86;100536.66;5054454;28;45382;-69
2022/12/13 02:35:42;;;;;;;;;4.00;4.00;;;;;20.46;36.90;100533.84;5053797;28;45434;-69
2022/12/13 02:38:18;;;;;;;;;5.50;5.50;;;;;20.45;37.17;100540.97;5054069;28;46309;-69
2022/12/13 02:40:46;;;;;;;;;6.75;5.25;;;;;20.45;37.08;100533.03;5054138;28;45343;-69
2022/12/13 02:43:52;;;;;;;;;5.50;4.50;;;;;20.45;36.90;100533.03;5054133;28;45438;-69
2022/12/13 02:46:21;;;;;;;;;5.00;4.25;;;;;20.44;37.17;100539.31;4952961;28;45424;-69
2022/12/13 02:48:49;;;;;;;;;6.00;4.75;;;;;20.44;36.94;100527.91;4952866;28;46392;-69
2022/12/13 02:51:17;;;;;;;;;5.50;5.50;;;;;20.40;36.82;100512.41;4952710;28;45500;-69
2022/12/13 02:53:43;;;;;;;;;4.25;4.00;;;;;20.24;36.85;100492.25;4950429;28;45532;-69
2022/12/13 02:56:09;;;;;;;;;6.00;6.00;;;;;20.41;36.96;100515.88;4933684;28;45515;-68
2022/12/13 02:58:44;;;;;;;;;6.25;6.00;;;;;20.42;37.21;100519.34;4933591;28;46518;-69
2022/12/13 03:01:12;;;;;;;;;6.50;5.00;;;;;20.40;37.16;100519.53;4933499;28;45377;-69
2022/12/13 03:04:06;;;;;;;;;5.50;4.00;;;;;20.39;37.27;100528.44;4933659;28;45401;-69
2022/12/13 03:06:57;;;;;;;;;4.25;3.00;;;;;20.40;37.14;100538.03;4933371;28;45551;-69
2022/12/13 03:09:46;;;;;;;;;6.00;5.75;;;;;20.38;37.08;100530.25;4933207;28;45464;-68
2022/12/13 03:15:20;;;;;;;;;6.25;5.25;;;;;20.38;37.08;100518.88;4933436;28;45453;-67
2022/12/13 03:17:55;;;;;;;;;9.75;7.00;;;;;20.29;37.41;100496.97;4933287;28;45528;-69
2022/12/13 03:20:23;;;;;;;;;5.00;5.00;;;;;20.36;37.01;100512.94;4950656;28;47171;-68
2022/12/13 03:22:50;;;;;;;;;9.50;6.00;;;;;20.26;36.95;100498.16;5027933;28;45291;-70
2022/12/13 03:25:16;;;;;;;;;5.25;5.25;;;;;20.34;37.15;100515.78;5033681;28;45344;-69
2022/12/13 03:27:41;;;;;;;;;6.50;6.50;;;;;20.34;37.28;100518.41;5033741;28;45367;-69
2022/12/13 03:30:07;;;;;;;;;7.50;6.00;;;;;20.34;36.84;100515.78;5015552;28;47108;-69
2022/12/13 03:32:33;;;;;;;;;5.75;5.00;;;;;20.33;37.09;100510.66;5033166;28;45273;-69
2022/12/13 03:34:58;;;;;;;;;5.00;4.50;;;;;20.33;37.13;100511.47;5033121;28;45394;-69
2022/12/13 03:37:23;;;;;;;;;8.25;6.00;;;;;20.33;36.97;100508.00;5033533;28;45334;-69
2022/12/13 03:39:49;;;;;;;;;6.00;4.50;;;;;20.33;37.05;100506.19;5033351;28;46167;-69
2022/12/13 03:42:16;;;;;;;;;6.75;5.75;;;;;20.24;37.12;100496.69;5033309;28;45331;-69
2022/12/13 03:44:41;;;;;;;;;5.25;5.25;;;;;20.33;36.93;100502.72;5033328;28;45339;-69
2022/12/13 03:47:07;;;;;;;;;8.00;5.50;;;;;20.31;36.95;100492.34;5033248;28;45536;-69
2022/12/13 03:49:32;;;;;;;;;5.50;4.75;;;;;20.30;37.04;100493.31;5033005;27;45472;-69
2022/12/13 03:51:57;;;;;;;;;7.25;6.75;;;;;20.32;37.05;100493.16;5033413;27;45361;-69
2022/12/13 03:54:23;;;;;;;;;8.00;6.25;;;;;20.31;37.13;100497.63;5033183;27;45503;-69
2022/12/13 03:56:48;;;;;;;;;9.00;6.00;;;;;20.31;36.94;100492.34;5033366;28;45345;-69
2022/12/13 03:59:13;;;;;;;;;5.50;5.00;;;;;20.31;36.98;100491.50;5033154;28;46589;-69
2022/12/13 04:01:39;;;;;;;;;6.75;5.25;;;;;20.31;37.06;100489.69;5032948;28;45349;-69
2022/12/13 04:04:04;;;;;;;;;7.50;4.50;;;;;20.30;37.05;100477.47;5032964;28;45305;-69
2022/12/13 04:06:29;;;;;;;;;6.00;5.00;;;;;20.31;36.64;100475.66;5033052;28;45221;-69
2022/12/13 04:08:55;;;;;;;;;5.75;5.75;;;;;20.30;36.76;100480.13;5032867;28;46068;-69
2022/12/13 04:14:04;;;;;;;;;8.25;6.50;;;;;20.29;36.56;100476.69;5018079;28;45324;-69
2022/12/13 04:16:29;;;;;;;;;6.50;6.50;;;;;20.29;36.38;100471.38;5032445;28;45478;-69
2022/12/13 04:18:55;;;;;;;;;6.75;5.00;;;;;20.31;36.53;100463.28;5039061;28;47082;-68
2022/12/13 04:21:20;;;;;;;;;8.25;7.75;;;;;20.31;36.50;100471.19;5053138;28;45263;-67
2022/12/13 04:23:45;;;;;;;;;8.50;5.50;;;;;20.29;36.35;100457.34;5053108;28;45341;-69
2022/12/13 04:26:11;;;;;;;;;6.25;4.50;;;;;20.31;36.27;100457.16;5053059;28;45259;-68
2022/12/13 04:28:36;;;;;;;;;5.75;5.75;;;;;20.21;36.37;100441.56;5052721;28;45440;-68
2022/12/13 04:31:02;;;;;;;;;4.25;3.50;;;;;20.31;36.67;100452.72;5034439;28;45310;-69
2022/12/13 04:33:27;;;;;;;;;7.50;5.75;;;;;20.25;36.27;100448.13;5052785;28;45313;-69
2022/12/13 04:35:52;;;;;;;;;4.00;4.00;;;;;20.27;36.44;100452.22;5052914;28;45354;-69
2022/12/13 04:38:18;;;;;;;;;8.50;5.75;;;;;20.30;36.58;100466.91;5052576;28;46176;-69
2022/12/13 04:40:44;;;;;;;;;7.50;6.00;;;;;20.29;36.55;100466.09;5052549;28;45366;-69
2022/12/13 04:43:09;;;;;;;;;5.00;5.00;;;;;20.29;36.86;100468.75;5053185;28;45404;-70
2022/12/13 04:45:34;;;;;;;;;7.00;4.75;;;;;20.30;36.54;100474.84;5055124;28;45526;-68
2022/12/13 04:48:00;;;;;;;;;3.50;3.50;;;;;20.24;36.56;100459.72;5055549;28;45375;-67
2022/12/13 04:50:25;;;;;;;;;8.00;5.25;;;;;20.29;36.48;100470.56;5055508;28;45332;-69
2022/12/13 04:52:50;;;;;;;;;5.75;5.75;;;;;20.28;36.92;100468.91;5055732;28;45822;-67
2022/12/13 04:55:16;;;;;;;;;5.75;5.75;;;;;20.27;36.30;100465.44;5040076;28;45401;-69
2022/12/13 04:57:41;;;;;;;;;4.25;4.25;;;;;20.27;36.66;100476.00;5035231;28;46127;-68
2022/12/13 05:00:12;;;;;;;;;5.75;5.75;;;;;20.27;36.74;100469.94;5034770;28;45341;-70
2022/12/13 05:02:37;;;;;;;;;4.25;4.25;;;;;20.27;36.56;100469.94;5035519;28;45423;-69
2022/12/13 05:05:03;;;;;;;;;6.75;6.25;;;;;20.26;36.57;100460.34;5035062;28;45356;-69
2022/12/13 05:07:28;;;;;;;;;5.50;4.75;;;;;20.26;36.59;100469.09;5035039;28;46312;-69
2022/12/13 05:09:53;;;;;;;;;7.00;6.00;;;;;20.21;36.67;100466.16;5017295;28;46080;-69
2022/12/13 05:12:19;;;;;;;;;6.75;6.50;;;;;20.25;36.58;100471.91;5035352;28;45384;-69
2022/12/13 05:14:44;;;;;;;;;4.25;3.25;;;;;20.24;36.60;100472.91;5034676;28;45448;-68
2022/12/13 05:17:09;;;;;;;;;7.00;6.00;;;;;20.20;36.54;100469.78;5035099;28;46107;-68
2022/12/13 05:19:34;;;;;;;;;6.75;5.75;;;;;20.24;36.58;100480.84;5035171;27;45538;-69
2022/12/13 05:22:00;;;;;;;;;6.75;5.00;;;;;20.23;36.30;100479.19;5035311;27;45432;-69
2022/12/13 05:24:25;;;;;;;;;6.00;6.00;;;;;20.21;36.55;100473.25;5035089;27;45396;-69
2022/12/13 05:26:51;;;;;;;;;6.75;5.75;;;;;20.23;36.51;100487.09;5034759;28;46211;-69
2022/12/13 05:29:16;;;;;;;;;5.25;4.75;;;;;20.21;36.48;100473.25;5034848;27;45463;-69
2022/12/13 05:31:42;;;;;;;;;5.50;5.00;;;;;20.16;36.57;100474.63;5035062;28;45338;-69
2022/12/13 05:34:07;;;;;;;;;5.00;4.00;;;;;20.18;36.47;100466.50;5034992;28;45327;-69
2022/12/13 05:36:33;;;;;;;;;6.00;6.00;;;;;20.20;36.54;100475.06;5034840;28;46344;-69
2022/12/13 05:38:58;;;;;;;;;8.25;6.00;;;;;20.21;36.57;100471.44;5034817;28;45508;-69
2022/12/13 05:41:28;;;;;;;;;5.25;5.25;;;;;20.21;36.31;100474.09;5035139;28;45247;-68
2022/12/13 05:43:53;;;;;;;;;5.50;5.50;;;;;20.20;36.53;100472.44;5034579;27;45591;-69
2022/12/13 05:46:19;;;;;;;;;6.75;5.50;;;;;20.20;36.75;100477.72;5034635;27;46200;-69
2022/12/13 05:48:44;;;;;;;;;7.25;5.00;;;;;20.22;36.63;100472.28;5034984;27;45334;-69
2022/12/13 05:51:10;;;;;;;;;7.00;7.00;;;;;20.22;36.52;100472.28;5035104;27;45400;-69
2022/12/13 05:53:36;;;;;;;;;5.75;5.75;;;;;20.21;36.75;100468.81;5016736;28;45433;-69
2022/12/13 05:56:01;;;;;;;;;5.00;4.75;;;;;20.23;36.80;100465.97;5034417;28;45386;-69
2022/12/13 05:58:27;;;;;;;;;7.25;6.75;;;;;20.24;36.73;100468.47;5034241;28;45306;-69
2022/12/13 06:00:52;;;;;;;;;5.00;4.25;;;;;20.25;36.58;100462.16;5034598;28;45321;-69
2022/12/13 06:03:18;;;;;;;;;12.00;7.25;;;;;20.26;36.38;100460.34;5034663;28;45510;-69
2022/12/13 06:05:43;;;;;;;;;7.50;5.75;;;;;20.26;36.42;100458.53;5034311;28;45488;-69
2022/12/13 06:08:09;;;;;;;;;8.00;7.25;;;;;20.27;36.57;100452.22;5034671;27;45217;-69
2022/12/13 06:10:34;;;;;;;;;7.75;5.00;;;;;20.17;36.64;100434.00;5034813;28;45355;-69
2022/12/13 06:13:00;;;;;;;;;5.50;4.50;;;;;20.29;36.55;100455.53;5034129;28;45383;-69
2022/12/13 06:15:25;;;;;;;;;7.25;5.25;;;;;20.29;36.70;100455.53;5034226;28;45413;-69
2022/12/13 06:17:50;;;;;;;;;6.50;5.50;;;;;20.32;36.32;100456.19;5034395;28;45354;-68
2022/12/13 06:20:16;;;;;;;;;5.75;4.75;;;;;20.30;36.28;100456.34;5051999;28;45487;-69
2022/12/13 06:22:42;;;;;;;;;5.00;4.25;;;;;20.34;36.09;100459.47;5054610;28;45562;-69
2022/12/13 06:25:07;;;;;;;;;5.00;5.00;;;;;20.34;36.33;100470.84;5054034;28;45856;-69
2022/12/13 06:27:33;;;;;;;;;4.25;4.25;;;;;20.34;36.40;100473.50;5053942;28;45442;-69
2022/12/13 06:29:58;;;;;;;;;4.75;3.75;;;;;20.35;36.49;100485.69;5054505;28;45412;-69
2022/12/13 06:32:23;;;;;;;;;4.75;4.75;;;;;20.36;36.38;100484.69;5054310;28;45372;-69
2022/12/13 06:34:49;;;;;;;;;5.75;5.00;;;;;20.37;36.25;100481.06;5054157;28;46079;-69
2022/12/13 06:37:14;;;;;;;;;5.00;4.00;;;;;20.36;36.24;100474.13;5054323;28;45428;-70
2022/12/13 06:39:40;;;;;;;;;6.50;4.00;;;;;20.36;36.39;100473.31;5054424;27;45454;-71
2022/12/13 06:42:07;;;;;;;;;7.50;6.25;;;;;20.37;36.20;100478.44;5054030;28;45447;-70
2022/12/13 06:44:33;;;;;;;;;4.75;4.25;;;;;20.36;36.60;100468.84;5036135;28;46126;-69
2022/12/13 06:46:59;;;;;;;;;3.75;3.50;;;;;20.38;36.45;100468.66;5053865;28;45413;-70
2022/12/13 06:49:25;;;;;;;;;5.75;4.75;;;;;20.36;36.48;100471.50;5036932;28;45353;-70
2022/12/13 06:51:50;;;;;;;;;5.25;4.25;;;;;20.38;36.84;100477.41;5034081;28;45529;-69
2022/12/13 06:54:16;;;;;;;;;8.25;4.00;;;;;20.39;36.88;100476.44;5033632;28;46030;-69
2022/12/13 06:56:41;;;;;;;;;5.00;5.00;;;;;20.42;37.02;100485.81;5033645;28;45313;-69
2022/12/13 06:59:06;;;;;;;;;3.50;3.25;;;;;20.44;36.97;100490.91;5034081;28;45468;-69
2022/12/13 07:01:32;;;;;;;;;4.75;4.75;;;;;20.44;37.25;100486.47;5033893;28;45480;-69
2022/12/13 07:03:57;;;;;;;;;6.00;5.00;;;;;20.34;37.22;100484.06;5033908;28;46073;-69
2022/12/13 07:06:24;;;;;;;;;4.00;4.00;;;;;20.45;37.36;100497.84;5033046;28;45415;-69
2022/12/13 07:08:55;;;;;;;;;4.50;4.50;;;;;20.45;37.25;100506.63;5034825;27;45344;-70
2022/12/13 07:11:23;;;;;;;;;4.00;4.00;;;;;20.47;37.91;100503.78;5033501;28;45365;-70
2022/12/13 07:13:49;;;;;;;;;6.50;5.25;;;;;20.46;37.75;100496.84;5033469;28;47252;-69
2022/12/13 07:16:14;;;;;;;;;7.25;4.00;;;;;20.48;37.43;100495.66;5033587;28;45276;-69
2022/12/13 07:18:40;;;;;;;;;4.25;4.00;;;;;20.48;37.42;100492.22;5038156;28;45577;-70
2022/12/13 07:21:10;;;;;;;;;5.00;5.00;;;;;20.50;37.33;100495.50;5053953;28;45406;-70
2022/12/13 07:23:37;;;;;;;;;3.25;2.00;;;;;20.49;37.31;100492.03;5053547;28;45188;-70
2022/12/13 07:26:03;;;;;;;;;6.50;4.50;;;;;20.49;37.42;100499.13;5053191;28;45327;-70
2022/12/13 07:28:32;;;;;;;;;7.25;6.00;;;;;20.49;37.31;100507.06;5053663;28;45392;-69
2022/12/13 07:31:00;;;;;;;;;4.00;4.00;;;;;20.50;37.39;100514.81;5053577;28;45365;-69
2022/12/13 07:33:25;;;;;;;;;4.00;4.00;;;;;20.50;37.17;100516.63;5053278;28;46094;-70
2022/12/13 07:36:02;;;;;;;;;5.25;4.50;;;;;20.39;37.39;100502.84;5053441;28;45347;-70
2022/12/13 07:38:27;;;;;;;;;6.00;5.00;;;;;20.50;37.42;100524.56;5053633;28;45342;-70
2022/12/13 07:40:55;;;;;;;;;7.50;5.25;;;;;20.50;37.37;100520.13;5053178;28;45376;-70
2022/12/13 07:43:21;;;;;;;;;3.25;3.25;;;;;20.49;37.37;100521.09;5053321;28;46211;-70
2022/12/13 07:45:46;;;;;;;;;5.75;5.75;;;;;20.49;37.27;100523.75;5053351;28;45351;-69
2022/12/13 07:48:11;;;;;;;;;7.50;3.00;;;;;20.49;36.99;100529.03;5053581;28;45689;-69
2022/12/13 07:50:37;;;;;;;;;7.00;6.25;;;;;20.50;37.11;100527.22;5053545;28;45280;-69
2022/12/13 07:53:05;;;;;;;;;6.00;3.50;;;;;20.50;37.04;100529.84;5053368;28;45306;-70
2022/12/13 07:55:32;;;;;;;;;4.00;4.00;;;;;20.50;36.88;100533.31;5035386;28;45393;-69
2022/12/13 07:58:09;;;;;;;;;4.75;3.75;;;;;20.50;37.08;100529.84;5033398;28;45401;-69
2022/12/13 08:00:38;;;;;;;;;7.25;5.00;;;;;20.46;37.07;100524.09;5033021;28;45376;-70
2022/12/13 08:03:04;;;;;;;;;4.25;4.25;;;;;20.50;37.08;100527.22;5033107;28;46135;-70
2022/12/13 08:05:30;;;;;;;;;5.00;5.00;;;;;20.49;36.85;100534.31;5032821;28;45441;-69
2022/12/13 08:07:55;;;;;;;;;4.25;4.25;;;;;20.48;37.01;100524.72;5033313;28;45361;-69
2022/12/13 08:10:21;;;;;;;;;5.00;4.00;;;;;20.49;37.01;100528.19;5032829;28;45369;-70
2022/12/13 08:12:46;;;;;;;;;6.00;4.00;;;;;20.47;37.26;100525.75;5032825;28;47102;-69
2022/12/13 08:15:12;;;;;;;;;7.50;5.75;;;;;20.47;37.20;100517.00;5032951;28;45338;-69
2022/12/13 08:17:37;;;;;;;;;6.00;5.00;;;;;20.46;37.13;100513.53;5032031;28;45457;-69
2022/12/13 08:20:03;;;;;;;;;4.00;4.00;;;;;20.45;37.12;100509.25;5048730;28;45264;-69
2022/12/13 08:22:29;;;;;;;;;6.25;5.00;;;;;20.36;37.27;100500.56;5052972;28;46920;-69
2022/12/13 08:24:57;;;;;;;;;4.00;4.00;;;;;20.45;37.20;100516.34;5052499;28;45376;-69
2022/12/13 08:27:22;;;;;;;;;7.25;5.00;;;;;20.45;37.22;100511.06;5053089;28;45390;-69
2022/12/13 08:29:47;;;;;;;;;5.00;3.75;;;;;20.44;36.96;100518.16;5052992;28;45317;-70
2022/12/13 08:32:13;;;;;;;;;6.25;4.50;;;;;20.44;37.01;100525.28;5052672;28;46929;-70
2022/12/13 08:34:40;;;;;;;;;5.00;3.00;;;;;20.44;37.29;100525.28;5052812;28;45323;-70
2022/12/13 08:37:05;;;;;;;;;5.25;5.25;;;;;20.43;37.15;100523.63;5052946;28;45423;-69
2022/12/13 08:39:36;;;;;;;;;4.25;4.25;;;;;20.43;36.92;100521.78;5052326;28;45377;-70
2022/12/13 08:42:03;;;;;;;;;5.25;5.00;;;;;20.34;37.03;100507.84;5052694;28;46443;-70
2022/12/13 08:44:29;;;;;;;;;3.00;3.00;;;;;20.35;36.79;100509.47;5052327;28;45245;-67
2022/12/13 08:46:54;;;;;;;;;6.00;5.75;;;;;20.40;37.35;100522.19;5052658;28;45374;-69
2022/12/13 08:49:20;;;;;;;;;4.50;4.50;;;;;20.38;37.00;100503.00;5052770;28;45389;-70
2022/12/13 08:51:45;;;;;;;;;4.00;4.00;;;;;20.42;36.99;100530.75;5052110;28;47337;-71
2022/12/13 08:54:10;;;;;;;;;4.75;4.75;;;;;20.33;37.15;100500.91;5046058;28;45454;-70
2022/12/13 08:56:36;;;;;;;;;6.00;5.00;;;;;20.40;37.20;100509.75;5032392;28;45304;-70
2022/12/13 08:59:01;;;;;;;;;3.50;3.50;;;;;20.40;37.01;100527.47;5014636;28;45490;-69
2022/12/13 09:01:26;;;;;;;;;4.50;4.25;;;;;20.40;36.96;100517.69;5032071;28;45352;-70
2022/12/13 09:03:54;;;;;;;;;4.25;4.25;;;;;20.40;37.01;100519.53;5032272;28;45381;-70
2022/12/13 09:06:19;;;;;;;;;7.25;5.50;;;;;20.38;37.13;100514.41;5031878;28;45349;-70
2022/12/13 09:08:44;;;;;;;;;5.00;4.25;;;;;20.39;37.07;100513.41;5032067;28;45363;-67
2022/12/13 09:11:11;;;;;;;;;5.75;5.00;;;;;20.38;36.91;100517.06;5031971;28;47142;-67
2022/12/13 09:13:37;;;;;;;;;4.00;4.00;;;;;20.39;37.01;100507.31;5032124;28;45453;-69
2022/12/13 09:16:07;;;;;;;;;5.25;4.00;;;;;20.38;36.84;100511.75;5032041;28;45380;-70
2022/12/13 09:18:32;;;;;;;;;4.50;4.50;;;;;20.37;37.16;100502.22;5035342;28;45298;-70
2022/12/13 09:20:58;;;;;;;;;5.00;4.50;;;;;20.38;37.15;100501.19;5033547;28;47196;-69
2022/12/13 09:23:23;;;;;;;;;6.00;5.00;;;;;20.38;37.13;100509.13;5052042;28;45405;-70
2022/12/13 09:25:59;;;;;;;;;3.00;2.50;;;;;20.32;36.93;100493.16;5052180;28;45436;-70
2022/12/13 09:28:25;;;;;;;;;2.50;2.25;;;;;20.39;36.81;100507.31;5052131;28;45587;-69
2022/12/13 09:30:51;;;;;;;;;5.25;5.25;;;;;20.40;36.68;100504.47;5054634;28;45283;-69
2022/12/13 09:33:16;;;;;;;;;5.25;5.25;;;;;20.40;36.68;100504.47;5054843;28;45482;-70
2022/12/13 09:35:42;;;;;;;;;7.00;5.00;;;;;20.41;36.80;100505.31;5054898;28;45485;-69
2022/12/13 09:38:07;;;;;;;;;5.00;4.25;;;;;20.42;36.74;100522.00;5055227;28;45487;-69
2022/12/13 09:40:36;;;;;;;;;7.25;4.00;;;;;20.40;36.03;100512.41;5055019;28;47053;-70
2022/12/13 09:43:02;;;;;;;;;4.75;4.75;;;;;20.40;36.23;100508.97;5055051;28;45420;-70
2022/12/13 09:45:29;;;;;;;;;3.00;3.00;;;;;20.42;36.38;100506.13;5054848;28;45441;-69
2022/12/13 09:47:57;;;;;;;;;5.75;5.00;;;;;20.31;36.15;100489.69;5055002;28;45451;-69
2022/12/13 09:50:32;;;;;;;;;3.00;3.00;;;;;20.44;36.40;100514.69;5054487;28;46309;-69
2022/12/13 09:53:01;;;;;;;;;5.00;4.00;;;;;20.43;36.13;100524.44;5055053;28;45461;-69
2022/12/13 09:55:31;;;;;;;;;3.75;3.75;;;;;20.43;36.59;100527.09;5037847;28;45349;-69
2022/12/13 09:57:59;;;;;;;;;5.25;5.25;;;;;20.44;36.39;100534.03;5034673;28;45372;-69
2022/12/13 10:00:32;;;;;;;;;6.00;5.00;;;;;20.44;36.36;100536.66;5034402;28;46195;-69
2022/12/13 10:02:58;;;;;;;;;4.50;4.00;;;;;20.32;36.35;100509.03;5034501;28;45478;-69
2022/12/13 10:05:30;;;;;;;;;4.00;4.00;;;;;20.43;36.49;100534.22;5034199;28;45327;-69
2022/12/13 10:07:59;;;;;;;;;6.00;5.25;;;;;20.43;36.59;100537.66;5034660;28;45349;-69
2022/12/13 10:10:25;;;;;;;;;5.50;5.00;;;;;20.45;36.48;100545.41;5034450;28;45381;-69
2022/12/13 10:13:07;;;;;;;;;4.50;4.25;;;;;20.44;36.40;100541.94;5034485;28;45420;-69
2022/12/13 10:15:36;;;;;;;;;4.75;3.50;;;;;20.44;36.54;100534.03;5034571;28;45385;-69
2022/12/13 10:18:03;;;;;;;;;3.50;1.75;;;;;20.42;36.64;100529.91;5034517;28;45456;-69
2022/12/13 10:20:29;;;;;;;;;3.75;3.75;;;;;20.44;36.55;100539.31;5035878;27;47323;-69
2022/12/13 10:22:54;;;;;;;;;4.25;4.25;;;;;20.43;36.59;100539.50;5054382;28;45456;-69
2022/12/13 10:25:45;;;;;;;;;6.00;4.00;;;;;20.44;36.39;100536.66;5054512;28;45342;-69
2022/12/13 10:28:11;;;;;;;;;5.00;5.00;;;;;20.44;36.35;100544.59;5036535;28;45410;-69
2022/12/13 10:30:41;;;;;;;;;5.75;5.25;;;;;20.29;36.68;100505.75;5054207;28;46323;-69
2022/12/13 10:33:23;;;;;;;;;6.00;5.00;;;;;20.41;36.25;100521.16;5054280;28;45406;-70
2022/12/13 10:36:05;;;;;;;;;4.25;4.25;;;;;20.37;36.61;100517.25;5054318;28;45472;-69
2022/12/13 10:38:35;;;;;;;;;6.75;4.75;;;;;20.43;36.51;100518.34;5054515;28;45507;-69
2022/12/13 10:41:01;;;;;;;;;3.00;3.00;;;;;20.40;36.53;100512.41;5053137;28;46368;-69
2022/12/13 10:43:27;;;;;;;;;5.00;5.00;;;;;20.43;36.52;100507.78;5053987;28;45356;-69
2022/12/13 10:45:58;;;;;;;;;3.00;3.00;;;;;20.42;36.41;100508.78;5054335;28;45483;-69
2022/12/13 10:48:39;;;;;;;;;4.00;4.00;;;;;20.42;36.48;100495.56;5054053;28;45541;-69
2022/12/13 10:51:10;;;;;;;;;4.00;4.00;;;;;20.38;36.44;100495.09;5053942;28;46253;-69
2022/12/13 10:53:44;;;;;;;;;5.50;5.00;;;;;20.34;36.48;100485.88;5052534;28;45504;-69
2022/12/13 10:56:10;;;;;;;;;5.25;5.25;;;;;20.41;36.44;100500.03;5033920;28;45386;-69
2022/12/13 10:58:39;;;;;;;;;7.00;4.25;;;;;20.28;36.45;100477.66;5034046;28;45349;-69
2022/12/13 11:01:22;;;;;;;;;6.50;4.00;;;;;20.41;36.52;100476.25;5033673;28;46211;-69
2022/12/13 11:04:04;;;;;;;;;4.50;4.50;;;;;20.42;36.49;100485.00;5033426;28;45413;-69
2022/12/13 11:06:44;;;;;;;;;4.25;4.00;;;;;20.40;36.48;100469.31;5033660;28;45301;-69
2022/12/13 11:09:31;;;;;;;;;5.75;4.00;;;;;20.39;36.66;100470.31;5034004;28;45405;-69
2022/12/13 11:12:00;;;;;;;;;6.00;4.00;;;;;20.39;36.56;100473.78;5033797;28;45321;-69
2022/12/13 11:14:30;;;;;;;;;7.75;5.50;;;;;20.39;36.31;100462.38;5033679;28;45396;-69
2022/12/13 11:16:59;;;;;;;;;4.00;4.00;;;;;20.39;36.45;100465.84;5033508;28;45337;-69
2022/12/13 11:19:38;;;;;;;;;4.00;3.00;;;;;20.39;36.21;100457.94;5044233;27;45460;-69
2022/12/13 11:22:04;;;;;;;;;3.75;3.75;;;;;20.39;36.03;100441.25;5053678;28;46055;-70
2022/12/13 11:24:34;;;;;;;;;4.00;4.00;;;;;20.39;35.92;100431.50;5053739;28;45603;-69
2022/12/13 11:27:26;;;;;;;;;3.75;3.75;;;;;20.39;35.97;100422.75;5053718;28;45355;-69
2022/12/13 11:29:57;;;;;;;;;4.25;4.00;;;;;20.39;36.14;100418.28;5037289;28;45296;-69
2022/12/13 11:33:01;;;;;;;;;6.75;4.50;;;;;20.40;35.74;100409.34;5053076;28;45307;-69
2022/12/13 11:35:40;;;;;;;;;5.00;5.00;;;;;20.33;36.06;100395.22;5031712;28;45397;-69